createdAt,value
2018-09-12T00:00:24.325Z,2.70
2018-09-12T00:01:24.526Z,2.60
2018-09-12T00:02:24.671Z,2.80
2018-09-12T00:03:24.853Z,2.80
2018-09-12T00:04:25.041Z,2.80
2018-09-12T00:05:25.255Z,2.30
2018-09-12T00:06:25.406Z,2.60
2018-09-12T00:07:25.590Z,2.50
2018-09-12T00:08:25.789Z,2.60
2018-09-12T00:09:26.011Z,2.90
2018-09-12T00:10:26.227Z,2.50
2018-09-12T00:11:26.425Z,2.50
2018-09-12T00:12:26.614Z,2.60
2018-09-12T00:13:26.829Z,3.00
2018-09-12T00:14:26.976Z,2.90
2018-09-12T00:15:27.190Z,2.60
2018-09-12T00:16:27.334Z,2.50
2018-09-12T00:17:27.605Z,2.60
2018-09-12T00:18:27.700Z,2.60
2018-09-12T00:19:27.877Z,2.60
2018-09-12T00:20:28.096Z,2.50
2018-09-12T00:21:28.237Z,2.40
2018-09-12T00:22:28.429Z,2.50
2018-09-12T00:23:28.613Z,2.50
2018-09-12T00:24:28.783Z,2.70
2018-09-12T00:25:28.971Z,2.70
2018-09-12T00:26:29.150Z,2.60
2018-09-12T00:27:29.321Z,2.60
2018-09-12T00:28:29.506Z,2.90
2018-09-12T00:29:29.690Z,2.80
2018-09-12T00:30:29.887Z,2.70
2018-09-12T00:31:30.063Z,2.50
2018-09-12T00:32:30.249Z,2.70
2018-09-12T00:33:30.448Z,2.60
2018-09-12T00:34:30.604Z,2.50
2018-09-12T00:35:30.790Z,2.80
2018-09-12T00:36:30.980Z,2.70
2018-09-12T00:37:31.148Z,2.50
2018-09-12T00:38:31.348Z,2.70
2018-09-12T00:39:31.508Z,2.60
2018-09-12T00:40:31.694Z,2.50
2018-09-12T00:41:31.872Z,2.70
2018-09-12T00:42:32.036Z,2.50
2018-09-12T00:43:32.290Z,2.80
2018-09-12T00:44:32.455Z,2.60
2018-09-12T00:45:32.627Z,2.70
2018-09-12T00:46:32.810Z,2.70
2018-09-12T00:47:32.992Z,2.80
2018-09-12T00:48:33.176Z,2.60
2018-09-12T00:49:33.353Z,2.50
2018-09-12T00:50:33.527Z,2.50
2018-09-12T00:51:33.705Z,2.40
2018-09-12T00:52:33.906Z,2.90
2018-09-12T00:53:34.126Z,2.70
2018-09-12T00:54:34.265Z,2.50
2018-09-12T00:55:34.441Z,2.60
2018-09-12T00:56:34.633Z,2.60
2018-09-12T00:57:35.604Z,2.60
2018-09-12T00:58:35.041Z,2.80
2018-09-12T00:59:35.229Z,2.70
2018-09-12T01:00:35.422Z,2.60
2018-09-12T01:01:35.633Z,2.80
2018-09-12T01:02:35.829Z,2.70
2018-09-12T01:03:36.028Z,2.70
2018-09-12T01:04:36.288Z,2.90
2018-09-12T01:05:36.436Z,2.90
2018-09-12T01:06:36.613Z,2.60
2018-09-12T01:07:36.818Z,2.50
2018-09-12T01:08:37.533Z,2.70
2018-09-12T01:09:37.123Z,2.70
2018-09-12T01:10:37.286Z,2.60
2018-09-12T01:11:37.475Z,2.80
2018-09-12T01:12:37.658Z,2.70
2018-09-12T01:13:37.839Z,2.60
2018-09-12T01:14:38.022Z,2.90
2018-09-12T01:15:38.199Z,2.70
2018-09-12T01:16:38.378Z,2.70
2018-09-12T01:17:38.556Z,2.80
2018-09-12T01:18:38.732Z,2.60
2018-09-12T01:19:38.918Z,2.90
2018-09-12T01:20:39.105Z,2.90
2018-09-12T01:21:39.305Z,2.80
2018-09-12T01:22:39.451Z,2.60
2018-09-12T01:23:39.645Z,2.80
2018-09-12T01:24:39.804Z,2.90
2018-09-12T01:25:40.020Z,2.80
2018-09-12T01:26:40.167Z,2.80
2018-09-12T01:27:40.359Z,2.70
2018-09-12T01:28:40.540Z,2.70
2018-09-12T01:29:40.724Z,2.70
2018-09-12T01:30:40.907Z,2.80
2018-09-12T01:31:41.088Z,2.40
2018-09-12T01:32:41.288Z,2.40
2018-09-12T01:33:41.505Z,2.70
2018-09-12T01:34:41.647Z,2.70
2018-09-12T01:35:41.824Z,2.80
2018-09-12T01:36:42.049Z,2.80
2018-09-12T01:37:42.191Z,2.90
2018-09-12T01:38:42.392Z,2.80
2018-09-12T01:39:42.548Z,3.00
2018-09-12T01:40:42.735Z,2.70
2018-09-12T01:41:42.935Z,2.80
2018-09-12T01:42:43.116Z,2.60
2018-09-12T01:43:43.274Z,2.80
2018-09-12T01:44:43.447Z,2.80
2018-09-12T01:45:43.629Z,2.90
2018-09-12T01:46:43.842Z,2.90
2018-09-12T01:47:44.022Z,3.10
2018-09-12T01:48:44.209Z,2.90
2018-09-12T01:49:44.395Z,3.10
2018-09-12T01:50:44.581Z,3.10
2018-09-12T01:51:44.767Z,3.00
2018-09-12T01:52:44.943Z,3.00
2018-09-12T01:53:45.113Z,3.30
2018-09-12T01:54:45.302Z,3.40
2018-09-12T01:55:45.493Z,3.60
2018-09-12T01:56:45.656Z,3.20
2018-09-12T01:57:45.851Z,3.20
2018-09-12T01:58:45.999Z,3.10
2018-09-12T01:59:46.201Z,3.30
2018-09-12T02:00:46.358Z,3.00
2018-09-12T02:01:46.553Z,3.20
2018-09-12T02:04:31.456Z,3.40
2018-09-12T02:05:29.623Z,3.20
2018-09-12T02:06:29.813Z,3.40
2018-09-12T02:07:29.984Z,3.20
2018-09-12T02:08:30.178Z,3.20
2018-09-12T02:09:30.342Z,3.50
2018-09-12T02:10:30.572Z,3.50
2018-09-12T02:11:30.708Z,3.30
2018-09-12T02:12:30.894Z,3.50
2018-09-12T02:13:31.095Z,3.50
2018-09-12T02:14:31.242Z,3.30
2018-09-12T02:15:31.442Z,3.40
2018-09-12T02:16:31.603Z,3.40
2018-09-12T02:17:31.809Z,3.40
2018-09-12T02:18:31.962Z,3.20
2018-09-12T02:19:32.165Z,3.40
2018-09-12T02:20:32.344Z,3.20
2018-09-12T02:21:32.581Z,3.10
2018-09-12T02:22:32.758Z,3.60
2018-09-12T02:23:32.885Z,3.50
2018-09-12T02:24:33.082Z,3.50
2018-09-12T02:25:33.254Z,3.50
2018-09-12T02:26:33.444Z,3.10
2018-09-12T02:27:33.632Z,3.20
2018-09-12T02:28:33.831Z,3.40
2018-09-12T02:29:33.983Z,3.30
2018-09-12T02:30:34.163Z,3.60
2018-09-12T02:31:34.344Z,3.40
2018-09-12T02:32:34.518Z,3.40
2018-09-12T02:33:34.723Z,3.40
2018-09-12T02:34:34.932Z,3.20
2018-09-12T02:35:35.099Z,3.40
2018-09-12T02:36:35.309Z,3.70
2018-09-12T02:37:35.469Z,3.50
2018-09-12T02:38:35.672Z,3.70
2018-09-12T02:39:35.864Z,3.50
2018-09-12T02:40:36.073Z,3.40
2018-09-12T02:41:36.259Z,3.60
2018-09-12T02:42:36.437Z,3.70
2018-09-12T02:43:36.654Z,3.50
2018-09-12T02:44:36.798Z,3.60
2018-09-12T02:45:37.002Z,3.40
2018-09-12T02:46:37.203Z,3.70
2018-09-12T02:47:37.350Z,3.60
2018-09-12T02:48:37.578Z,3.50
2018-09-12T02:49:37.715Z,3.60
2018-09-12T02:50:37.954Z,3.80
2018-09-12T02:51:38.092Z,3.70
2018-09-12T02:52:38.279Z,3.60
2018-09-12T02:53:38.470Z,3.40
2018-09-12T02:54:38.631Z,3.30
2018-09-12T02:55:38.842Z,3.70
2018-09-12T02:56:39.034Z,3.50
2018-09-12T02:57:39.251Z,3.60
2018-09-12T02:58:39.407Z,3.40
2018-09-12T02:59:39.604Z,3.70
2018-09-12T03:00:39.762Z,3.90
2018-09-12T03:01:39.945Z,3.50
2018-09-12T03:02:40.124Z,3.40
2018-09-12T03:03:40.312Z,3.20
2018-09-12T03:04:40.494Z,3.40
2018-09-12T03:05:40.690Z,3.40
2018-09-12T03:06:40.861Z,3.40
2018-09-12T03:07:41.056Z,3.40
2018-09-12T03:08:41.304Z,3.50
2018-09-12T03:09:41.562Z,3.50
2018-09-12T03:10:41.674Z,3.50
2018-09-12T03:11:41.913Z,3.50
2018-09-12T03:12:42.045Z,3.50
2018-09-12T03:13:42.220Z,3.50
2018-09-12T03:14:42.790Z,3.50
2018-09-12T03:15:42.643Z,3.20
2018-09-12T03:16:42.804Z,3.50
2018-09-12T03:17:43.007Z,3.50
2018-09-12T03:18:43.154Z,3.50
2018-09-12T03:19:43.369Z,3.20
2018-09-12T03:20:43.627Z,3.20
2018-09-12T03:21:43.734Z,2.90
2018-09-12T03:22:43.944Z,3.30
2018-09-12T03:23:44.092Z,3.40
2018-09-12T03:24:44.307Z,3.40
2018-09-12T03:25:44.492Z,3.00
2018-09-12T03:26:44.666Z,3.30
2018-09-12T03:27:44.874Z,3.20
2018-09-12T03:28:45.034Z,3.10
2018-09-12T03:29:45.207Z,3.60
2018-09-12T03:30:45.394Z,3.60
2018-09-12T03:31:45.573Z,3.10
2018-09-12T03:32:45.772Z,3.20
2018-09-12T03:33:45.959Z,3.30
2018-09-12T03:34:46.155Z,3.20
2018-09-12T03:35:46.337Z,3.40
2018-09-12T03:36:46.483Z,3.30
2018-09-12T03:37:46.649Z,3.90
2018-09-12T03:38:46.859Z,3.40
2018-09-12T03:39:47.033Z,3.60
2018-09-12T03:40:47.212Z,3.40
2018-09-12T03:41:47.416Z,3.50
2018-09-12T03:42:47.593Z,3.50
2018-09-12T03:43:47.835Z,3.40
2018-09-12T03:44:47.996Z,3.30
2018-09-12T03:45:48.186Z,3.60
2018-09-12T03:46:48.382Z,3.30
2018-09-12T03:47:48.548Z,3.50
2018-09-12T03:48:48.743Z,3.30
2018-09-12T03:49:48.913Z,3.30
2018-09-12T03:50:49.100Z,3.40
2018-09-12T03:51:49.282Z,3.20
2018-09-12T03:52:49.464Z,3.50
2018-09-12T03:53:49.669Z,3.60
2018-09-12T03:54:49.853Z,3.20
2018-09-12T03:55:50.049Z,3.60
2018-09-12T03:56:50.215Z,3.30
2018-09-12T03:57:50.394Z,3.40
2018-09-12T03:58:50.581Z,3.10
2018-09-12T03:59:50.766Z,3.40
2018-09-12T04:00:50.952Z,3.40
2018-09-12T04:01:51.121Z,3.40
2018-09-12T04:02:51.318Z,3.40
2018-09-12T04:03:51.484Z,3.20
2018-09-12T04:04:51.657Z,3.40
2018-09-12T04:05:51.863Z,3.10
2018-09-12T04:06:52.045Z,3.40
2018-09-12T04:07:52.251Z,3.30
2018-09-12T04:08:52.426Z,3.50
2018-09-12T04:09:52.569Z,3.70
2018-09-12T04:10:52.744Z,3.60
2018-09-12T04:11:52.919Z,3.00
2018-09-12T04:12:53.173Z,3.70
2018-09-12T04:13:53.325Z,3.60
2018-09-12T04:14:53.508Z,3.40
2018-09-12T04:15:53.697Z,3.30
2018-09-12T04:16:54.015Z,3.40
2018-09-12T04:17:54.068Z,3.50
2018-09-12T04:18:54.270Z,3.70
2018-09-12T04:19:54.477Z,3.20
2018-09-12T04:20:54.658Z,3.40
2018-09-12T04:21:54.837Z,3.40
2018-09-12T04:22:55.023Z,3.70
2018-09-12T04:23:55.245Z,3.40
2018-09-12T04:24:55.371Z,3.50
2018-09-12T04:25:55.570Z,3.30
2018-09-12T04:26:55.729Z,3.50
2018-09-12T04:27:55.900Z,3.20
2018-09-12T04:28:56.075Z,3.60
2018-09-12T04:29:56.246Z,3.30
2018-09-12T04:30:56.474Z,3.50
2018-09-12T04:31:56.608Z,3.40
2018-09-12T04:32:56.795Z,3.60
2018-09-12T04:33:57.056Z,3.70
2018-09-12T04:34:57.238Z,3.70
2018-09-12T04:35:57.419Z,4.00
2018-09-12T04:36:57.654Z,3.90
2018-09-12T04:37:57.767Z,4.80
2018-09-12T04:38:57.946Z,5.00
2018-09-12T04:39:58.145Z,4.20
2018-09-12T04:40:58.354Z,4.30
2018-09-12T04:41:58.554Z,4.10
2018-09-12T04:42:58.690Z,4.20
2018-09-12T04:43:58.852Z,4.50
2018-09-12T04:44:59.031Z,4.00
2018-09-12T04:45:59.234Z,4.20
2018-09-12T04:46:59.408Z,3.90
2018-09-12T04:47:59.588Z,3.80
2018-09-12T04:48:59.763Z,3.70
2018-09-12T04:50:00.011Z,3.70
2018-09-12T04:51:00.155Z,3.70
2018-09-12T04:52:00.385Z,3.90
2018-09-12T04:53:00.584Z,3.60
2018-09-12T04:54:00.765Z,3.60
2018-09-12T04:55:00.964Z,3.80
2018-09-12T04:56:01.112Z,3.50
2018-09-12T04:57:01.298Z,3.90
2018-09-12T04:58:01.469Z,3.70
2018-09-12T04:59:01.649Z,3.70
2018-09-12T05:00:01.877Z,3.90
2018-09-12T05:01:02.004Z,3.60
2018-09-12T05:02:02.187Z,3.70
2018-09-12T05:03:02.378Z,3.80
2018-09-12T05:04:02.567Z,3.50
2018-09-12T05:05:02.754Z,3.50
2018-09-12T05:06:02.934Z,3.70
2018-09-12T05:07:03.114Z,3.60
2018-09-12T05:08:03.358Z,3.80
2018-09-12T05:09:03.468Z,3.90
2018-09-12T05:10:03.673Z,3.90
2018-09-12T05:11:03.889Z,3.50
2018-09-12T05:12:04.051Z,3.70
2018-09-12T05:13:04.233Z,4.00
2018-09-12T05:14:04.436Z,3.70
2018-09-12T05:15:04.735Z,3.70
2018-09-12T05:16:04.989Z,3.90
2018-09-12T05:17:04.973Z,3.70
2018-09-12T05:18:05.150Z,3.70
2018-09-12T05:19:05.321Z,3.50
2018-09-12T05:20:05.510Z,3.60
2018-09-12T05:21:05.710Z,3.50
2018-09-12T05:22:05.921Z,3.80
2018-09-12T05:23:06.141Z,3.60
2018-09-12T05:24:06.330Z,3.60
2018-09-12T05:25:06.507Z,3.70
2018-09-12T05:26:06.689Z,3.50
2018-09-12T05:27:06.872Z,3.50
2018-09-12T05:28:07.052Z,3.10
2018-09-12T05:29:07.243Z,3.50
2018-09-12T05:30:07.442Z,3.80
2018-09-12T05:31:07.611Z,3.80
2018-09-12T05:32:07.798Z,3.50
2018-09-12T05:33:07.997Z,3.40
2018-09-12T05:34:08.208Z,3.60
2018-09-12T05:35:08.397Z,3.60
2018-09-12T05:36:08.586Z,2.80
2018-09-12T05:37:08.796Z,3.10
2018-09-12T05:38:08.960Z,3.20
2018-09-12T05:39:09.172Z,3.30
2018-09-12T05:40:09.398Z,3.50
2018-09-12T05:41:09.535Z,3.10
2018-09-12T05:42:09.758Z,3.10
2018-09-12T05:43:09.979Z,2.90
2018-09-12T05:44:10.087Z,3.40
2018-09-12T05:45:10.262Z,3.00
2018-09-12T05:46:10.450Z,3.00
2018-09-12T05:47:10.726Z,3.00
2018-09-12T05:48:10.892Z,3.10
2018-09-12T05:49:11.091Z,3.00
2018-09-12T05:50:11.297Z,3.00
2018-09-12T05:51:11.436Z,3.00
2018-09-12T05:52:11.637Z,3.10
2018-09-12T05:53:11.859Z,3.00
2018-09-12T05:54:12.051Z,2.80
2018-09-12T05:55:12.234Z,2.90
2018-09-12T05:56:12.429Z,2.90
2018-09-12T05:57:12.615Z,2.90
2018-09-12T05:58:12.817Z,3.00
2018-09-12T05:59:13.068Z,2.90
2018-09-12T06:00:13.188Z,2.80
2018-09-12T06:01:13.368Z,3.00
2018-09-12T06:02:13.554Z,2.80
2018-09-12T06:03:13.730Z,2.80
2018-09-12T06:04:13.935Z,2.90
2018-09-12T06:05:14.169Z,2.90
2018-09-12T06:06:14.360Z,3.00
2018-09-12T06:07:14.808Z,3.20
2018-09-12T06:08:14.698Z,3.30
2018-09-12T06:09:14.903Z,3.30
2018-09-12T06:10:15.085Z,3.10
2018-09-12T06:11:15.275Z,2.70
2018-09-12T06:12:15.461Z,3.00
2018-09-12T06:13:15.662Z,2.80
2018-09-12T06:14:15.958Z,3.00
2018-09-12T06:15:16.068Z,2.90
2018-09-12T06:16:16.235Z,2.60
2018-09-12T06:17:16.382Z,2.60
2018-09-12T06:18:16.573Z,2.80
2018-09-12T06:19:16.820Z,2.80
2018-09-12T06:20:16.942Z,2.80
2018-09-12T06:21:17.164Z,2.90
2018-09-12T06:22:17.315Z,2.90
2018-09-12T06:23:17.509Z,2.60
2018-09-12T06:24:17.702Z,2.80
2018-09-12T06:25:17.890Z,3.30
2018-09-12T06:26:18.080Z,3.00
2018-09-12T06:27:18.270Z,3.00
2018-09-12T06:28:18.472Z,3.20
2018-09-12T06:29:18.653Z,3.10
2018-09-12T06:30:18.843Z,2.70
2018-09-12T06:31:19.041Z,2.80
2018-09-12T06:32:19.245Z,3.00
2018-09-12T06:33:19.426Z,3.10
2018-09-12T06:34:19.618Z,3.00
2018-09-12T06:35:19.803Z,2.70
2018-09-12T06:36:20.015Z,2.70
2018-09-12T06:37:20.179Z,3.20
2018-09-12T06:38:20.422Z,2.60
2018-09-12T06:39:20.589Z,3.10
2018-09-12T06:40:20.748Z,2.50
2018-09-12T06:41:20.937Z,2.80
2018-09-12T06:42:21.154Z,2.60
2018-09-12T06:43:21.312Z,2.60
2018-09-12T06:44:21.516Z,2.50
2018-09-12T06:45:21.722Z,2.80
2018-09-12T06:46:21.904Z,2.70
2018-09-12T06:47:22.122Z,2.90
2018-09-12T06:48:22.308Z,2.40
2018-09-12T06:49:22.502Z,3.00
2018-09-12T06:50:22.685Z,2.50
2018-09-12T06:51:22.882Z,2.80
2018-09-12T06:52:23.060Z,2.60
2018-09-12T06:53:23.247Z,3.00
2018-09-12T06:54:23.443Z,2.50
2018-09-12T06:55:23.631Z,2.60
2018-09-12T06:56:23.823Z,2.80
2018-09-12T06:57:24.007Z,2.70
2018-09-12T06:58:24.206Z,2.90
2018-09-12T06:59:24.425Z,2.60
2018-09-12T07:00:24.589Z,2.70
2018-09-12T07:01:24.775Z,2.70
2018-09-12T07:02:24.973Z,2.80
2018-09-12T07:03:25.166Z,2.90
2018-09-12T07:04:25.331Z,2.80
2018-09-12T07:05:25.522Z,2.50
2018-09-12T07:06:25.731Z,3.00
2018-09-12T07:07:25.909Z,3.20
2018-09-12T07:08:26.095Z,3.30
2018-09-12T07:09:26.317Z,3.30
2018-09-12T07:10:26.474Z,2.70
2018-09-12T07:11:26.679Z,2.80
2018-09-12T07:12:26.874Z,3.30
2018-09-12T07:13:27.065Z,2.80
2018-09-12T07:14:27.260Z,2.80
2018-09-12T07:15:27.452Z,2.60
2018-09-12T07:16:27.660Z,2.90
2018-09-12T07:17:27.865Z,3.10
2018-09-12T07:18:28.079Z,2.90
2018-09-12T07:19:28.289Z,3.00
2018-09-12T07:20:28.495Z,2.60
2018-09-12T07:21:28.728Z,2.70
2018-09-12T07:22:28.920Z,3.10
2018-09-12T07:23:29.076Z,2.80
2018-09-12T07:24:29.389Z,2.70
2018-09-12T07:25:29.466Z,2.90
2018-09-12T07:26:29.654Z,2.60
2018-09-12T07:27:29.862Z,2.90
2018-09-12T07:28:30.047Z,2.50
2018-09-12T07:29:30.226Z,2.70
2018-09-12T07:30:30.432Z,2.70
2018-09-12T07:31:30.603Z,2.50
2018-09-12T07:32:30.792Z,2.80
2018-09-12T07:33:30.982Z,2.60
2018-09-12T07:34:31.162Z,2.60
2018-09-12T07:35:31.391Z,2.80
2018-09-12T07:36:31.557Z,3.10
2018-09-12T07:37:31.720Z,2.80
2018-09-12T07:38:31.921Z,2.80
2018-09-12T07:39:32.116Z,2.80
2018-09-12T07:40:32.312Z,2.70
2018-09-12T07:41:32.512Z,2.60
2018-09-12T07:42:32.696Z,3.00
2018-09-12T07:43:32.925Z,2.60
2018-09-12T07:44:33.081Z,2.90
2018-09-12T07:45:34.271Z,2.70
2018-09-12T07:46:33.505Z,2.70
2018-09-12T07:47:33.724Z,2.50
2018-09-12T07:48:33.941Z,3.00
2018-09-12T07:49:34.119Z,2.70
2018-09-12T07:50:34.287Z,2.60
2018-09-12T07:51:34.526Z,2.70
2018-09-12T07:52:34.672Z,2.70
2018-09-12T07:53:34.861Z,2.60
2018-09-12T07:54:35.048Z,2.80
2018-09-12T07:55:35.231Z,2.70
2018-09-12T07:56:35.405Z,2.70
2018-09-12T07:57:35.601Z,2.70
2018-09-12T07:58:35.805Z,2.70
2018-09-12T07:59:35.970Z,2.90
2018-09-12T08:00:36.173Z,2.60
2018-09-12T08:01:36.359Z,2.40
2018-09-12T08:02:36.560Z,2.80
2018-09-12T08:03:36.741Z,2.40
2018-09-12T08:04:36.936Z,2.50
2018-09-12T08:05:37.129Z,2.60
2018-09-12T08:06:37.327Z,2.60
2018-09-12T08:07:37.520Z,2.70
2018-09-12T08:08:37.704Z,2.50
2018-09-12T08:09:37.890Z,2.60
2018-09-12T08:10:38.086Z,2.80
2018-09-12T08:11:38.294Z,2.80
2018-09-12T08:12:38.487Z,2.60
2018-09-12T08:13:38.649Z,2.90
2018-09-12T08:14:38.839Z,2.80
2018-09-12T08:15:39.036Z,2.70
2018-09-12T08:16:39.228Z,2.70
2018-09-12T08:17:39.399Z,2.50
2018-09-12T08:18:39.589Z,2.40
2018-09-12T08:19:39.778Z,2.30
2018-09-12T08:20:39.983Z,2.40
2018-09-12T08:21:40.220Z,2.40
2018-09-12T08:22:40.429Z,2.60
2018-09-12T08:23:40.652Z,2.90
2018-09-12T08:24:40.853Z,2.80
2018-09-12T08:25:41.049Z,2.20
2018-09-12T08:26:41.245Z,2.70
2018-09-12T08:27:41.433Z,2.90
2018-09-12T08:28:41.629Z,2.60
2018-09-12T08:29:41.822Z,2.40
2018-09-12T08:30:42.005Z,2.20
2018-09-12T08:31:42.200Z,2.50
2018-09-12T08:32:42.395Z,2.50
2018-09-12T08:33:42.581Z,2.60
2018-09-12T08:34:42.769Z,2.50
2018-09-12T08:35:42.981Z,3.00
2018-09-12T08:36:43.158Z,2.60
2018-09-12T08:37:43.375Z,2.30
2018-09-12T08:38:43.557Z,2.80
2018-09-12T08:39:43.752Z,2.60
2018-09-12T08:40:43.951Z,2.70
2018-09-12T08:41:44.130Z,2.70
2018-09-12T08:42:44.329Z,2.70
2018-09-12T08:43:44.512Z,2.20
2018-09-12T08:44:44.705Z,2.40
2018-09-12T08:45:44.894Z,2.10
2018-09-12T08:46:45.078Z,2.30
2018-09-12T08:47:45.304Z,2.10
2018-09-12T08:48:45.455Z,2.20
2018-09-12T08:49:45.640Z,2.00
2018-09-12T08:50:45.827Z,2.10
2018-09-12T08:51:46.046Z,2.30
2018-09-12T08:52:46.285Z,1.90
2018-09-12T08:53:46.420Z,2.10
2018-09-12T08:54:46.603Z,2.40
2018-09-12T08:55:46.811Z,2.00
2018-09-12T08:56:47.085Z,2.10
2018-09-12T08:57:47.196Z,2.20
2018-09-12T08:58:47.383Z,2.10
2018-09-12T08:59:47.565Z,2.10
2018-09-12T09:00:47.793Z,2.20
2018-09-12T09:01:47.979Z,2.10
2018-09-12T09:02:48.131Z,1.90
2018-09-12T09:03:48.319Z,2.10
2018-09-12T09:04:48.505Z,1.90
2018-09-12T09:05:48.689Z,2.00
2018-09-12T09:06:48.891Z,2.50
2018-09-12T09:07:49.071Z,2.10
2018-09-12T09:08:49.279Z,2.30
2018-09-12T09:09:49.439Z,2.20
2018-09-12T09:10:49.631Z,1.90
2018-09-12T09:11:49.825Z,2.00
2018-09-12T09:12:50.018Z,2.20
2018-09-12T09:13:50.207Z,2.20
2018-09-12T09:14:50.400Z,2.10
2018-09-12T09:15:50.594Z,2.40
2018-09-12T09:16:50.786Z,2.20
2018-09-12T09:17:50.994Z,2.10
2018-09-12T09:18:51.157Z,2.20
2018-09-12T09:19:51.364Z,2.30
2018-09-12T09:20:51.539Z,2.10
2018-09-12T09:21:51.733Z,2.70
2018-09-12T09:22:51.930Z,2.30
2018-09-12T09:23:52.112Z,2.20
2018-09-12T09:24:52.315Z,2.20
2018-09-12T09:25:52.499Z,2.20
2018-09-12T09:26:52.709Z,2.40
2018-09-12T09:27:52.878Z,2.20
2018-09-12T09:28:53.128Z,2.30
2018-09-12T09:29:53.261Z,2.40
2018-09-12T09:30:53.455Z,2.40
2018-09-12T09:31:53.670Z,2.50
2018-09-12T09:32:53.839Z,2.40
2018-09-12T09:33:54.032Z,2.40
2018-09-12T09:34:54.295Z,2.20
2018-09-12T09:35:54.426Z,2.40
2018-09-12T09:36:54.606Z,2.30
2018-09-12T09:37:54.801Z,2.30
2018-09-12T09:38:55.001Z,2.70
2018-09-12T09:39:55.197Z,2.30
2018-09-12T09:40:55.378Z,2.20
2018-09-12T09:41:55.560Z,2.60
2018-09-12T09:42:55.823Z,2.30
2018-09-12T09:43:55.962Z,2.20
2018-09-12T09:44:56.129Z,2.10
2018-09-12T09:45:56.325Z,2.20
2018-09-12T09:46:56.502Z,2.10
2018-09-12T09:47:56.748Z,2.20
2018-09-12T09:48:56.899Z,2.10
2018-09-12T09:49:57.091Z,2.40
2018-09-12T09:50:57.265Z,2.40
2018-09-12T09:51:57.469Z,2.10
2018-09-12T09:52:57.638Z,2.10
2018-09-12T09:53:57.842Z,2.60
2018-09-12T09:54:58.092Z,2.40
2018-09-12T09:55:58.231Z,2.00
2018-09-12T09:56:58.430Z,2.20
2018-09-12T09:57:58.639Z,2.20
2018-09-12T09:58:58.807Z,2.20
2018-09-12T09:59:59.007Z,2.10
2018-09-12T10:01:00.225Z,2.30
2018-09-12T10:01:59.392Z,2.20
2018-09-12T10:02:59.584Z,2.30
2018-09-12T10:03:59.779Z,2.10
2018-09-12T10:04:59.979Z,2.40
2018-09-12T10:06:00.265Z,2.40
2018-09-12T10:07:00.365Z,2.00
2018-09-12T10:08:00.551Z,2.40
2018-09-12T10:09:00.808Z,2.00
2018-09-12T10:10:00.947Z,2.10
2018-09-12T10:11:01.137Z,2.10
2018-09-12T10:12:01.399Z,2.20
2018-09-12T10:13:01.574Z,2.10
2018-09-12T10:14:01.756Z,2.10
2018-09-12T10:15:01.952Z,2.10
2018-09-12T10:16:02.136Z,2.20
2018-09-12T10:17:02.337Z,2.20
2018-09-12T10:18:02.564Z,2.10
2018-09-12T10:19:02.753Z,2.10
2018-09-12T10:20:02.968Z,1.90
2018-09-12T10:21:03.177Z,2.10
2018-09-12T10:22:03.352Z,2.10
2018-09-12T10:23:03.572Z,2.10
2018-09-12T10:24:03.714Z,2.10
2018-09-12T10:25:03.924Z,1.90
2018-09-12T10:26:04.118Z,2.10
2018-09-12T10:27:04.338Z,1.90
2018-09-12T10:28:04.523Z,2.20
2018-09-12T10:29:04.703Z,2.00
2018-09-12T10:30:04.897Z,1.90
2018-09-12T10:31:05.099Z,1.90
2018-09-12T10:32:06.006Z,2.30
2018-09-12T10:33:05.496Z,2.10
2018-09-12T10:34:05.742Z,2.10
2018-09-12T10:35:05.969Z,2.40
2018-09-12T10:36:06.135Z,1.90
2018-09-12T10:37:06.336Z,2.00
2018-09-12T10:38:06.520Z,2.70
2018-09-12T10:39:06.711Z,2.00
2018-09-12T10:40:06.911Z,2.00
2018-09-12T10:41:07.190Z,2.10
2018-09-12T10:42:07.286Z,2.20
2018-09-12T10:43:07.494Z,2.00
2018-09-12T10:44:07.685Z,2.10
2018-09-12T10:45:07.884Z,2.20
2018-09-12T10:46:08.063Z,2.40
2018-09-12T10:47:08.262Z,2.20
2018-09-12T10:48:08.459Z,2.00
2018-09-12T10:49:08.659Z,2.10
2018-09-12T10:50:08.866Z,2.20
2018-09-12T10:51:09.045Z,2.10
2018-09-12T10:52:09.239Z,2.10
2018-09-12T10:53:09.432Z,2.10
2018-09-12T10:54:09.651Z,2.50
2018-09-12T10:55:09.847Z,2.10
2018-09-12T10:56:10.273Z,2.20
2018-09-12T10:57:10.319Z,2.10
2018-09-12T10:58:10.475Z,2.20
2018-09-12T10:59:10.746Z,2.30
2018-09-12T11:00:10.853Z,2.30
2018-09-12T11:01:11.047Z,1.90
2018-09-12T11:02:11.238Z,2.30
2018-09-12T11:03:11.424Z,2.10
2018-09-12T11:04:11.721Z,2.10
2018-09-12T11:05:11.857Z,2.20
2018-09-12T11:06:12.044Z,2.10
2018-09-12T11:07:12.171Z,2.50
2018-09-12T11:08:12.430Z,2.20
2018-09-12T11:09:12.616Z,2.20
2018-09-12T11:10:12.779Z,2.10
2018-09-12T11:11:12.969Z,2.60
2018-09-12T11:12:13.152Z,2.10
2018-09-12T11:13:13.342Z,2.10
2018-09-12T11:14:13.535Z,2.20
2018-09-12T11:15:13.739Z,2.50
2018-09-12T11:16:13.949Z,2.30
2018-09-12T11:17:14.149Z,2.40
2018-09-12T11:18:14.371Z,1.90
2018-09-12T11:19:14.553Z,2.40
2018-09-12T11:20:14.738Z,2.50
2018-09-12T11:21:14.926Z,2.20
2018-09-12T11:22:15.100Z,2.40
2018-09-12T11:23:15.309Z,2.30
2018-09-12T11:24:15.518Z,2.20
2018-09-12T11:25:15.736Z,2.60
2018-09-12T11:26:15.859Z,2.20
2018-09-12T11:27:16.042Z,2.20
2018-09-12T11:28:16.259Z,2.20
2018-09-12T11:29:16.451Z,2.30
2018-09-12T11:30:16.630Z,2.30
2018-09-12T11:31:16.821Z,2.60
2018-09-12T11:32:17.048Z,2.40
2018-09-12T11:33:17.185Z,2.30
2018-09-12T11:34:17.390Z,2.00
2018-09-12T11:35:17.603Z,2.50
2018-09-12T11:36:17.780Z,2.20
2018-09-12T11:37:17.961Z,2.30
2018-09-12T11:38:18.213Z,2.50
2018-09-12T11:39:18.397Z,2.40
2018-09-12T11:40:18.590Z,2.30
2018-09-12T11:41:19.547Z,2.20
2018-09-12T11:42:19.024Z,2.80
2018-09-12T11:43:19.137Z,2.40
2018-09-12T11:44:19.327Z,2.10
2018-09-12T11:45:19.551Z,2.50
2018-09-12T11:46:20.116Z,2.10
2018-09-12T11:47:19.920Z,2.40
2018-09-12T11:48:20.132Z,2.20
2018-09-12T11:49:20.317Z,2.60
2018-09-12T11:50:20.916Z,2.40
2018-09-12T11:51:20.634Z,2.30
2018-09-12T11:52:20.849Z,2.30
2018-09-12T11:53:21.721Z,2.20
2018-09-12T11:54:21.199Z,2.30
2018-09-12T11:55:21.441Z,2.20
2018-09-12T11:56:21.580Z,2.40
2018-09-12T11:57:21.789Z,2.00
2018-09-12T11:58:21.953Z,2.50
2018-09-12T11:59:22.156Z,2.40
2018-09-12T12:00:22.352Z,2.30
2018-09-12T12:01:22.539Z,2.20
2018-09-12T12:02:22.747Z,2.60
2018-09-12T12:03:22.950Z,2.50
2018-09-12T12:04:23.139Z,2.50
2018-09-12T12:05:23.292Z,2.30
2018-09-12T12:06:23.440Z,2.40
2018-09-12T12:07:23.662Z,2.30
2018-09-12T12:08:23.840Z,2.30
2018-09-12T12:09:24.044Z,2.30
2018-09-12T12:10:24.230Z,2.30
2018-09-12T12:11:24.400Z,2.20
2018-09-12T12:12:24.574Z,2.50
2018-09-12T12:13:24.773Z,2.40
2018-09-12T12:14:24.958Z,2.20
2018-09-12T12:15:25.254Z,2.70
2018-09-12T12:16:25.350Z,2.20
2018-09-12T12:17:25.544Z,2.50
2018-09-12T12:18:25.720Z,2.30
2018-09-12T12:19:25.911Z,2.20
2018-09-12T12:20:26.082Z,2.40
2018-09-12T12:21:26.262Z,2.40
2018-09-12T12:22:26.473Z,2.40
2018-09-12T12:23:26.665Z,2.70
2018-09-12T12:24:26.869Z,2.40
2018-09-12T12:25:27.084Z,2.50
2018-09-12T12:26:27.260Z,2.40
2018-09-12T12:27:27.449Z,2.60
2018-09-12T12:28:27.622Z,2.60
2018-09-12T12:29:27.873Z,2.40
2018-09-12T12:30:28.076Z,2.30
2018-09-12T12:31:28.226Z,2.50
2018-09-12T12:32:28.379Z,2.60
2018-09-12T12:33:28.564Z,2.40
2018-09-12T12:34:28.849Z,2.50
2018-09-12T12:35:29.022Z,2.40
2018-09-12T12:36:29.220Z,2.50
2018-09-12T12:37:29.331Z,2.60
2018-09-12T12:38:29.557Z,2.60
2018-09-12T12:39:29.713Z,2.50
2018-09-12T12:40:29.926Z,2.30
2018-09-12T12:41:30.160Z,2.70
2018-09-12T12:42:30.312Z,2.40
2018-09-12T12:43:30.501Z,2.40
2018-09-12T12:44:30.787Z,2.60
2018-09-12T12:45:30.903Z,2.30
2018-09-12T12:46:31.078Z,2.60
2018-09-12T12:47:31.254Z,2.50
2018-09-12T12:48:31.425Z,2.50
2018-09-12T12:49:31.609Z,2.50
2018-09-12T12:50:31.799Z,2.40
2018-09-12T12:51:32.269Z,2.30
2018-09-12T12:52:32.372Z,2.50
2018-09-12T12:53:32.349Z,2.70
2018-09-12T12:54:32.530Z,2.50
2018-09-12T12:55:32.722Z,2.60
2018-09-12T12:56:32.912Z,2.30
2018-09-12T12:57:33.107Z,2.60
2018-09-12T12:58:33.310Z,2.20
2018-09-12T12:59:33.532Z,2.50
2018-09-12T13:00:33.695Z,2.50
2018-09-12T13:01:33.878Z,2.60
2018-09-12T13:02:34.065Z,2.50
2018-09-12T13:03:34.265Z,2.30
2018-09-12T13:04:34.457Z,2.40
2018-09-12T13:05:34.693Z,2.70
2018-09-12T13:06:34.868Z,2.40
2018-09-12T13:07:35.023Z,2.70
2018-09-12T13:08:35.230Z,2.40
2018-09-12T13:09:35.407Z,2.70
2018-09-12T13:10:35.608Z,2.50
2018-09-12T13:11:35.860Z,2.50
2018-09-12T13:12:35.968Z,2.40
2018-09-12T13:13:36.162Z,2.40
2018-09-12T13:14:36.374Z,2.40
2018-09-12T13:15:36.558Z,2.50
2018-09-12T13:16:36.752Z,2.70
2018-09-12T13:17:37.102Z,2.70
2018-09-12T13:18:37.201Z,2.60
2018-09-12T13:19:37.381Z,2.50
2018-09-12T13:20:37.566Z,2.60
2018-09-12T13:21:37.914Z,2.60
2018-09-12T13:22:37.950Z,2.60